sensor_id;sensor_type;location;lat;lon;timestamp;temperature;humidity
11838;DHT22;5978;51.020;6.764;2023-01-08T00:01:31;10.80;99.90
11838;DHT22;5978;51.020;6.764;2023-01-08T00:03:56;10.80;99.90
11838;DHT22;5978;51.020;6.764;2023-01-08T00:06:22;10.80;99.90
11838;DHT22;5978;51.020;6.764;2023-01-08T00:08:48;10.70;99.90
11838;DHT22;5978;51.020;6.764;2023-01-08T00:11:14;10.70;99.90
11838;DHT22;5978;51.020;6.764;2023-01-08T00:13:40;10.70;99.90
11838;DHT22;5978;51.020;6.764;2023-01-08T00:16:08;10.60;99.90
11838;DHT22;5978;51.020;6.764;2023-01-08T00:18:34;10.40;99.90
11838;DHT22;5978;51.020;6.764;2023-01-08T00:21:00;10.50;99.90
11838;DHT22;5978;51.020;6.764;2023-01-08T00:23:26;10.50;99.90
11838;DHT22;5978;51.020;6.764;2023-01-08T00:25:52;10.50;99.90
11838;DHT22;5978;51.020;6.764;2023-01-08T00:28:17;11.00;99.90
11838;DHT22;5978;51.020;6.764;2023-01-08T00:30:45;10.50;99.90
11838;DHT22;5978;51.020;6.764;2023-01-08T00:33:11;10.80;99.90
11838;DHT22;5978;51.020;6.764;2023-01-08T00:35:37;10.30;99.90
11838;DHT22;5978;51.020;6.764;2023-01-08T00:38:04;10.40;99.90
11838;DHT22;5978;51.020;6.764;2023-01-08T00:40:29;10.40;99.90
11838;DHT22;5978;51.020;6.764;2023-01-08T00:42:55;10.40;99.90
11838;DHT22;5978;51.020;6.764;2023-01-08T00:45:21;10.40;99.90
11838;DHT22;5978;51.020;6.764;2023-01-08T00:47:46;10.40;99.90
11838;DHT22;5978;51.020;6.764;2023-01-08T00:50:12;10.40;99.90
11838;DHT22;5978;51.020;6.764;2023-01-08T00:52:38;10.40;99.90
11838;DHT22;5978;51.020;6.764;2023-01-08T00:55:04;10.40;99.90
11838;DHT22;5978;51.020;6.764;2023-01-08T00:57:37;10.50;99.90
11838;DHT22;5978;51.020;6.764;2023-01-08T01:00:05;10.50;99.90
11838;DHT22;5978;51.020;6.764;2023-01-08T01:02:31;10.50;99.90
11838;DHT22;5978;51.020;6.764;2023-01-08T01:04:56;10.60;99.90
11838;DHT22;5978;51.020;6.764;2023-01-08T01:07:22;10.60;99.90
11838;DHT22;5978;51.020;6.764;2023-01-08T01:09:47;10.60;99.90
11838;DHT22;5978;51.020;6.764;2023-01-08T01:12:13;10.60;99.90
11838;DHT22;5978;51.020;6.764;2023-01-08T01:14:39;10.50;99.90
11838;DHT22;5978;51.020;6.764;2023-01-08T01:17:04;10.60;99.90
11838;DHT22;5978;51.020;6.764;2023-01-08T01:19:30;10.60;99.90
11838;DHT22;5978;51.020;6.764;2023-01-08T01:21:56;10.60;99.90
11838;DHT22;5978;51.020;6.764;2023-01-08T01:24:21;10.60;99.90
11838;DHT22;5978;51.020;6.764;2023-01-08T01:26:50;10.60;99.90
11838;DHT22;5978;51.020;6.764;2023-01-08T01:29:16;10.70;99.90
11838;DHT22;5978;51.020;6.764;2023-01-08T01:31:41;10.70;99.90
11838;DHT22;5978;51.020;6.764;2023-01-08T01:34:08;10.70;99.90
11838;DHT22;5978;51.020;6.764;2023-01-08T01:36:34;10.80;99.90
11838;DHT22;5978;51.020;6.764;2023-01-08T01:38:59;10.70;99.90
11838;DHT22;5978;51.020;6.764;2023-01-08T01:41:35;10.80;99.90
11838;DHT22;5978;51.020;6.764;2023-01-08T01:49:39;10.80;99.90
11838;DHT22;5978;51.020;6.764;2023-01-08T01:52:07;10.80;99.90
11838;DHT22;5978;51.020;6.764;2023-01-08T01:54:35;10.80;99.90
11838;DHT22;5978;51.020;6.764;2023-01-08T01:57:01;10.80;99.90
11838;DHT22;5978;51.020;6.764;2023-01-08T01:59:27;10.80;99.90
11838;DHT22;5978;51.020;6.764;2023-01-08T02:01:53;10.80;99.90
11838;DHT22;5978;51.020;6.764;2023-01-08T02:04:20;10.80;99.90
11838;DHT22;5978;51.020;6.764;2023-01-08T02:12:43;10.80;99.90
11838;DHT22;5978;51.020;6.764;2023-01-08T02:20:39;10.70;99.90
11838;DHT22;5978;51.020;6.764;2023-01-08T02:25:52;10.60;99.90
11838;DHT22;5978;51.020;6.764;2023-01-08T02:28:20;10.60;99.90
11838;DHT22;5978;51.020;6.764;2023-01-08T02:30:46;10.50;99.90
11838;DHT22;5978;51.020;6.764;2023-01-08T02:33:12;10.50;99.90
11838;DHT22;5978;51.020;6.764;2023-01-08T02:35:43;10.50;99.90
11838;DHT22;5978;51.020;6.764;2023-01-08T02:38:13;10.50;99.90
11838;DHT22;5978;51.020;6.764;2023-01-08T02:41:04;10.50;99.90
11838;DHT22;5978;51.020;6.764;2023-01-08T02:43:46;10.50;99.90
11838;DHT22;5978;51.020;6.764;2023-01-08T02:46:18;10.40;99.90
11838;DHT22;5978;51.020;6.764;2023-01-08T02:48:47;10.40;99.90
11838;DHT22;5978;51.020;6.764;2023-01-08T02:53:50;10.40;99.90
11838;DHT22;5978;51.020;6.764;2023-01-08T02:56:23;10.30;99.90
11838;DHT22;5978;51.020;6.764;2023-01-08T02:58:52;10.30;99.90
11838;DHT22;5978;51.020;6.764;2023-01-08T03:01:20;10.30;99.90
11838;DHT22;5978;51.020;6.764;2023-01-08T03:03:50;10.30;99.90
11838;DHT22;5978;51.020;6.764;2023-01-08T03:06:17;10.30;99.90
11838;DHT22;5978;51.020;6.764;2023-01-08T03:08:46;10.30;99.90
11838;DHT22;5978;51.020;6.764;2023-01-08T03:11:18;10.30;99.90
11838;DHT22;5978;51.020;6.764;2023-01-08T03:14:06;10.30;99.90
11838;DHT22;5978;51.020;6.764;2023-01-08T03:17:00;10.30;99.90
11838;DHT22;5978;51.020;6.764;2023-01-08T03:19:32;10.20;99.90
11838;DHT22;5978;51.020;6.764;2023-01-08T03:22:01;10.20;99.90
11838;DHT22;5978;51.020;6.764;2023-01-08T03:24:32;10.20;99.90
11838;DHT22;5978;51.020;6.764;2023-01-08T03:26:59;10.10;99.90
11838;DHT22;5978;51.020;6.764;2023-01-08T03:29:27;10.20;99.90
11838;DHT22;5978;51.020;6.764;2023-01-08T03:31:57;10.20;99.90
11838;DHT22;5978;51.020;6.764;2023-01-08T03:34:24;10.20;99.90
11838;DHT22;5978;51.020;6.764;2023-01-08T03:36:54;10.40;99.90
11838;DHT22;5978;51.020;6.764;2023-01-08T03:39:27;10.20;99.90
11838;DHT22;5978;51.020;6.764;2023-01-08T03:41:58;10.20;99.90
11838;DHT22;5978;51.020;6.764;2023-01-08T03:44:25;10.20;99.90
11838;DHT22;5978;51.020;6.764;2023-01-08T03:46:53;10.30;99.90
11838;DHT22;5978;51.020;6.764;2023-01-08T03:49:20;10.20;99.90
11838;DHT22;5978;51.020;6.764;2023-01-08T03:51:47;10.30;99.90
11838;DHT22;5978;51.020;6.764;2023-01-08T03:54:18;10.20;99.90
11838;DHT22;5978;51.020;6.764;2023-01-08T03:56:44;10.20;99.90
11838;DHT22;5978;51.020;6.764;2023-01-08T03:59:11;10.20;99.90
11838;DHT22;5978;51.020;6.764;2023-01-08T04:01:36;10.20;99.90
11838;DHT22;5978;51.020;6.764;2023-01-08T04:04:02;10.20;99.90
11838;DHT22;5978;51.020;6.764;2023-01-08T04:06:28;10.20;99.90
11838;DHT22;5978;51.020;6.764;2023-01-08T04:08:53;10.20;99.90
11838;DHT22;5978;51.020;6.764;2023-01-08T04:11:19;10.20;99.90
11838;DHT22;5978;51.020;6.764;2023-01-08T04:13:44;10.10;99.90
11838;DHT22;5978;51.020;6.764;2023-01-08T04:16:10;10.10;99.90
11838;DHT22;5978;51.020;6.764;2023-01-08T04:18:35;10.10;99.90
11838;DHT22;5978;51.020;6.764;2023-01-08T04:21:01;10.10;99.90
11838;DHT22;5978;51.020;6.764;2023-01-08T04:23:27;10.20;99.90
11838;DHT22;5978;51.020;6.764;2023-01-08T04:25:52;10.30;99.90
11838;DHT22;5978;51.020;6.764;2023-01-08T04:28:19;10.20;99.90
11838;DHT22;5978;51.020;6.764;2023-01-08T04:30:45;10.10;99.90
11838;DHT22;5978;51.020;6.764;2023-01-08T04:33:11;10.20;99.90
11838;DHT22;5978;51.020;6.764;2023-01-08T04:35:36;10.10;99.90
11838;DHT22;5978;51.020;6.764;2023-01-08T04:38:02;10.10;99.90
11838;DHT22;5978;51.020;6.764;2023-01-08T04:40:28;10.10;99.90
11838;DHT22;5978;51.020;6.764;2023-01-08T04:42:53;10.00;99.90
11838;DHT22;5978;51.020;6.764;2023-01-08T04:45:19;10.00;99.90
11838;DHT22;5978;51.020;6.764;2023-01-08T04:47:45;10.00;99.90
11838;DHT22;5978;51.020;6.764;2023-01-08T04:50:10;10.00;99.90
11838;DHT22;5978;51.020;6.764;2023-01-08T04:52:36;10.00;99.90
11838;DHT22;5978;51.020;6.764;2023-01-08T04:55:02;10.00;99.90
11838;DHT22;5978;51.020;6.764;2023-01-08T04:57:28;10.00;99.90
11838;DHT22;5978;51.020;6.764;2023-01-08T04:59:53;10.00;99.90
11838;DHT22;5978;51.020;6.764;2023-01-08T05:02:19;10.00;99.90
11838;DHT22;5978;51.020;6.764;2023-01-08T05:04:44;10.00;99.90
11838;DHT22;5978;51.020;6.764;2023-01-08T05:07:10;9.70;99.90
11838;DHT22;5978;51.020;6.764;2023-01-08T05:09:35;10.00;99.90
11838;DHT22;5978;51.020;6.764;2023-01-08T05:12:01;10.00;99.90
11838;DHT22;5978;51.020;6.764;2023-01-08T05:14:27;10.00;99.90
11838;DHT22;5978;51.020;6.764;2023-01-08T05:16:52;10.00;99.90
11838;DHT22;5978;51.020;6.764;2023-01-08T05:19:18;10.30;99.90
11838;DHT22;5978;51.020;6.764;2023-01-08T05:21:43;10.00;99.90
11838;DHT22;5978;51.020;6.764;2023-01-08T05:24:09;10.10;99.90
11838;DHT22;5978;51.020;6.764;2023-01-08T05:26:34;10.10;99.90
11838;DHT22;5978;51.020;6.764;2023-01-08T05:29:00;10.10;99.90
11838;DHT22;5978;51.020;6.764;2023-01-08T05:31:25;10.10;99.90
11838;DHT22;5978;51.020;6.764;2023-01-08T05:33:51;10.10;99.90
11838;DHT22;5978;51.020;6.764;2023-01-08T05:36:17;10.10;99.90
11838;DHT22;5978;51.020;6.764;2023-01-08T05:38:43;10.10;99.90
11838;DHT22;5978;51.020;6.764;2023-01-08T05:41:09;10.10;99.90
11838;DHT22;5978;51.020;6.764;2023-01-08T05:43:35;10.10;99.90
11838;DHT22;5978;51.020;6.764;2023-01-08T05:46:01;10.10;99.90
11838;DHT22;5978;51.020;6.764;2023-01-08T05:48:28;10.10;99.90
11838;DHT22;5978;51.020;6.764;2023-01-08T05:50:54;10.10;99.90
11838;DHT22;5978;51.020;6.764;2023-01-08T05:53:20;10.10;99.90
11838;DHT22;5978;51.020;6.764;2023-01-08T05:55:45;10.10;99.90
11838;DHT22;5978;51.020;6.764;2023-01-08T05:58:11;10.10;99.90
11838;DHT22;5978;51.020;6.764;2023-01-08T06:00:37;10.10;99.90
11838;DHT22;5978;51.020;6.764;2023-01-08T06:03:03;10.20;99.90
11838;DHT22;5978;51.020;6.764;2023-01-08T06:05:31;10.00;99.90
11838;DHT22;5978;51.020;6.764;2023-01-08T06:07:58;10.00;99.90
11838;DHT22;5978;51.020;6.764;2023-01-08T06:10:24;9.90;99.90
11838;DHT22;5978;51.020;6.764;2023-01-08T06:12:50;9.90;99.90
11838;DHT22;5978;51.020;6.764;2023-01-08T06:15:16;9.80;99.90
11838;DHT22;5978;51.020;6.764;2023-01-08T06:17:41;9.70;99.90
11838;DHT22;5978;51.020;6.764;2023-01-08T06:20:07;9.60;99.90
11838;DHT22;5978;51.020;6.764;2023-01-08T06:22:33;9.60;99.90
11838;DHT22;5978;51.020;6.764;2023-01-08T06:25:00;9.60;99.90
11838;DHT22;5978;51.020;6.764;2023-01-08T06:27:25;9.60;99.90
11838;DHT22;5978;51.020;6.764;2023-01-08T06:29:51;9.70;99.90
11838;DHT22;5978;51.020;6.764;2023-01-08T06:32:16;9.70;99.90
11838;DHT22;5978;51.020;6.764;2023-01-08T06:34:42;9.70;99.90
11838;DHT22;5978;51.020;6.764;2023-01-08T06:37:07;9.70;99.90
11838;DHT22;5978;51.020;6.764;2023-01-08T06:39:33;9.70;99.90
11838;DHT22;5978;51.020;6.764;2023-01-08T06:41:58;9.70;99.90
11838;DHT22;5978;51.020;6.764;2023-01-08T06:44:24;9.80;99.90
11838;DHT22;5978;51.020;6.764;2023-01-08T06:46:50;9.50;99.90
11838;DHT22;5978;51.020;6.764;2023-01-08T06:49:16;9.20;99.90
11838;DHT22;5978;51.020;6.764;2023-01-08T06:51:42;9.00;99.90
11838;DHT22;5978;51.020;6.764;2023-01-08T06:54:08;8.80;99.90
11838;DHT22;5978;51.020;6.764;2023-01-08T06:56:34;8.70;99.90
11838;DHT22;5978;51.020;6.764;2023-01-08T06:58:59;8.60;99.90
11838;DHT22;5978;51.020;6.764;2023-01-08T07:01:25;8.50;99.90
11838;DHT22;5978;51.020;6.764;2023-01-08T07:03:50;8.40;99.90
11838;DHT22;5978;51.020;6.764;2023-01-08T07:06:20;8.40;99.90
11838;DHT22;5978;51.020;6.764;2023-01-08T07:08:47;8.40;99.90
11838;DHT22;5978;51.020;6.764;2023-01-08T07:11:14;8.30;99.90
11838;DHT22;5978;51.020;6.764;2023-01-08T07:13:39;8.30;99.90
11838;DHT22;5978;51.020;6.764;2023-01-08T07:16:06;8.30;99.90
11838;DHT22;5978;51.020;6.764;2023-01-08T07:18:32;8.30;99.90
11838;DHT22;5978;51.020;6.764;2023-01-08T07:20:58;8.30;99.90
11838;DHT22;5978;51.020;6.764;2023-01-08T07:23:24;8.30;99.90
11838;DHT22;5978;51.020;6.764;2023-01-08T07:25:49;8.30;99.90
11838;DHT22;5978;51.020;6.764;2023-01-08T07:28:15;8.20;99.90
11838;DHT22;5978;51.020;6.764;2023-01-08T07:30:40;8.20;99.90
11838;DHT22;5978;51.020;6.764;2023-01-08T07:33:07;8.20;99.90
11838;DHT22;5978;51.020;6.764;2023-01-08T07:35:33;8.30;99.90
11838;DHT22;5978;51.020;6.764;2023-01-08T07:37:59;8.30;99.90
11838;DHT22;5978;51.020;6.764;2023-01-08T07:40:25;8.20;99.90
11838;DHT22;5978;51.020;6.764;2023-01-08T07:43:02;8.20;99.90
11838;DHT22;5978;51.020;6.764;2023-01-08T07:45:28;8.20;99.90
11838;DHT22;5978;51.020;6.764;2023-01-08T07:47:56;8.30;99.90
11838;DHT22;5978;51.020;6.764;2023-01-08T07:50:22;8.30;99.90
11838;DHT22;5978;51.020;6.764;2023-01-08T07:52:48;8.30;99.90
11838;DHT22;5978;51.020;6.764;2023-01-08T07:55:14;8.30;99.90
11838;DHT22;5978;51.020;6.764;2023-01-08T07:57:39;8.30;99.90
11838;DHT22;5978;51.020;6.764;2023-01-08T08:00:06;8.40;99.90
11838;DHT22;5978;51.020;6.764;2023-01-08T08:02:32;8.40;99.90
11838;DHT22;5978;51.020;6.764;2023-01-08T08:04:57;8.40;99.90
11838;DHT22;5978;51.020;6.764;2023-01-08T08:07:23;8.40;99.90
11838;DHT22;5978;51.020;6.764;2023-01-08T08:09:49;8.40;99.90
11838;DHT22;5978;51.020;6.764;2023-01-08T08:12:14;8.40;99.90
11838;DHT22;5978;51.020;6.764;2023-01-08T08:14:40;8.40;99.90
11838;DHT22;5978;51.020;6.764;2023-01-08T08:17:05;8.40;99.90
11838;DHT22;5978;51.020;6.764;2023-01-08T08:19:31;8.40;99.90
11838;DHT22;5978;51.020;6.764;2023-01-08T08:21:56;8.60;99.90
11838;DHT22;5978;51.020;6.764;2023-01-08T08:24:22;8.10;99.90
11838;DHT22;5978;51.020;6.764;2023-01-08T08:26:47;8.50;99.90
11838;DHT22;5978;51.020;6.764;2023-01-08T08:29:14;8.50;99.90
11838;DHT22;5978;51.020;6.764;2023-01-08T08:31:39;8.50;99.90
11838;DHT22;5978;51.020;6.764;2023-01-08T08:34:05;8.50;99.90
11838;DHT22;5978;51.020;6.764;2023-01-08T08:36:32;8.50;99.90
11838;DHT22;5978;51.020;6.764;2023-01-08T08:38:58;8.60;99.90
11838;DHT22;5978;51.020;6.764;2023-01-08T08:41:24;8.60;99.90
11838;DHT22;5978;51.020;6.764;2023-01-08T08:43:49;8.60;99.90
11838;DHT22;5978;51.020;6.764;2023-01-08T08:46:16;8.60;99.90
11838;DHT22;5978;51.020;6.764;2023-01-08T08:48:45;8.50;99.90
11838;DHT22;5978;51.020;6.764;2023-01-08T08:51:11;8.50;99.90
11838;DHT22;5978;51.020;6.764;2023-01-08T08:53:37;8.50;99.90
11838;DHT22;5978;51.020;6.764;2023-01-08T08:56:03;8.50;99.90
11838;DHT22;5978;51.020;6.764;2023-01-08T08:58:28;8.40;99.90
11838;DHT22;5978;51.020;6.764;2023-01-08T09:00:54;8.40;99.90
11838;DHT22;5978;51.020;6.764;2023-01-08T09:03:19;8.40;99.90
11838;DHT22;5978;51.020;6.764;2023-01-08T09:05:45;8.60;99.90
11838;DHT22;5978;51.020;6.764;2023-01-08T09:08:11;8.30;99.90
11838;DHT22;5978;51.020;6.764;2023-01-08T09:10:38;8.20;99.90
11838;DHT22;5978;51.020;6.764;2023-01-08T09:13:04;8.20;99.90
11838;DHT22;5978;51.020;6.764;2023-01-08T09:15:30;8.20;99.90
11838;DHT22;5978;51.020;6.764;2023-01-08T09:17:56;8.20;99.90
11838;DHT22;5978;51.020;6.764;2023-01-08T09:20:23;8.20;99.90
11838;DHT22;5978;51.020;6.764;2023-01-08T09:22:48;8.20;99.90
11838;DHT22;5978;51.020;6.764;2023-01-08T09:25:14;8.20;99.90
11838;DHT22;5978;51.020;6.764;2023-01-08T09:27:40;8.30;99.90
11838;DHT22;5978;51.020;6.764;2023-01-08T09:30:06;8.50;99.90
11838;DHT22;5978;51.020;6.764;2023-01-08T09:32:32;8.90;99.90
11838;DHT22;5978;51.020;6.764;2023-01-08T09:34:57;9.50;99.90
11838;DHT22;5978;51.020;6.764;2023-01-08T09:37:23;9.70;99.90
11838;DHT22;5978;51.020;6.764;2023-01-08T09:39:49;9.70;99.90
11838;DHT22;5978;51.020;6.764;2023-01-08T09:42:15;9.70;99.90
11838;DHT22;5978;51.020;6.764;2023-01-08T09:44:45;9.70;99.90
11838;DHT22;5978;51.020;6.764;2023-01-08T09:47:44;9.70;99.90
11838;DHT22;5978;51.020;6.764;2023-01-08T09:50:12;9.70;99.90
11838;DHT22;5978;51.020;6.764;2023-01-08T09:52:38;9.70;99.90
11838;DHT22;5978;51.020;6.764;2023-01-08T09:55:14;9.70;99.90
11838;DHT22;5978;51.020;6.764;2023-01-08T09:57:41;9.70;99.90
11838;DHT22;5978;51.020;6.764;2023-01-08T10:00:21;9.80;99.90
11838;DHT22;5978;51.020;6.764;2023-01-08T10:02:48;9.90;99.90
11838;DHT22;5978;51.020;6.764;2023-01-08T10:05:16;9.90;99.90
11838;DHT22;5978;51.020;6.764;2023-01-08T10:07:43;10.00;99.90
11838;DHT22;5978;51.020;6.764;2023-01-08T10:12:45;10.20;99.90
11838;DHT22;5978;51.020;6.764;2023-01-08T10:15:15;10.30;99.90
11838;DHT22;5978;51.020;6.764;2023-01-08T10:18:01;10.40;99.90
11838;DHT22;5978;51.020;6.764;2023-01-08T10:20:28;10.50;99.90
11838;DHT22;5978;51.020;6.764;2023-01-08T10:22:54;10.60;99.90
11838;DHT22;5978;51.020;6.764;2023-01-08T10:25:23;10.70;99.90
11838;DHT22;5978;51.020;6.764;2023-01-08T10:28:02;10.70;99.90
11838;DHT22;5978;51.020;6.764;2023-01-08T10:30:34;10.80;99.90
11838;DHT22;5978;51.020;6.764;2023-01-08T10:33:14;10.90;99.90
11838;DHT22;5978;51.020;6.764;2023-01-08T10:35:42;11.10;99.90
11838;DHT22;5978;51.020;6.764;2023-01-08T10:38:31;11.40;99.90
11838;DHT22;5978;51.020;6.764;2023-01-08T10:40:59;11.60;99.90
11838;DHT22;5978;51.020;6.764;2023-01-08T10:43:28;11.90;99.90
11838;DHT22;5978;51.020;6.764;2023-01-08T10:46:01;12.20;99.90
11838;DHT22;5978;51.020;6.764;2023-01-08T10:48:36;12.50;99.90
11838;DHT22;5978;51.020;6.764;2023-01-08T10:51:04;12.70;99.90
11838;DHT22;5978;51.020;6.764;2023-01-08T10:53:29;12.90;99.90
11838;DHT22;5978;51.020;6.764;2023-01-08T10:56:00;12.90;99.90
11838;DHT22;5978;51.020;6.764;2023-01-08T10:58:27;13.00;99.90
11838;DHT22;5978;51.020;6.764;2023-01-08T11:00:54;13.30;99.90
11838;DHT22;5978;51.020;6.764;2023-01-08T11:03:30;13.80;99.90
11838;DHT22;5978;51.020;6.764;2023-01-08T11:05:56;14.50;99.90
11838;DHT22;5978;51.020;6.764;2023-01-08T11:08:23;14.80;99.90
11838;DHT22;5978;51.020;6.764;2023-01-08T11:10:57;15.30;99.90
11838;DHT22;5978;51.020;6.764;2023-01-08T11:13:23;16.00;99.90
11838;DHT22;5978;51.020;6.764;2023-01-08T11:16:03;16.10;99.90
11838;DHT22;5978;51.020;6.764;2023-01-08T11:18:29;15.80;99.90
11838;DHT22;5978;51.020;6.764;2023-01-08T11:21:09;16.00;99.90
11838;DHT22;5978;51.020;6.764;2023-01-08T11:23:41;15.20;99.90
11838;DHT22;5978;51.020;6.764;2023-01-08T11:26:14;14.60;99.90
11838;DHT22;5978;51.020;6.764;2023-01-08T11:28:49;14.00;99.90
11838;DHT22;5978;51.020;6.764;2023-01-08T11:31:22;13.50;99.90
11838;DHT22;5978;51.020;6.764;2023-01-08T11:34:04;13.10;99.90
11838;DHT22;5978;51.020;6.764;2023-01-08T11:36:45;12.90;99.90
11838;DHT22;5978;51.020;6.764;2023-01-08T11:39:11;12.80;99.90
11838;DHT22;5978;51.020;6.764;2023-01-08T11:44:47;12.60;99.90
11838;DHT22;5978;51.020;6.764;2023-01-08T11:50:22;12.30;99.90
11838;DHT22;5978;51.020;6.764;2023-01-08T11:56:13;12.30;99.90
11838;DHT22;5978;51.020;6.764;2023-01-08T12:01:36;12.30;99.90
11838;DHT22;5978;51.020;6.764;2023-01-08T12:04:26;12.30;99.90
11838;DHT22;5978;51.020;6.764;2023-01-08T12:09:43;12.20;99.90
11838;DHT22;5978;51.020;6.764;2023-01-08T12:15:11;12.30;99.90
11838;DHT22;5978;51.020;6.764;2023-01-08T12:17:50;13.00;99.90
11838;DHT22;5978;51.020;6.764;2023-01-08T12:20:29;12.80;99.90
11838;DHT22;5978;51.020;6.764;2023-01-08T12:29:18;12.80;99.90
11838;DHT22;5978;51.020;6.764;2023-01-08T12:31:43;12.90;99.90
11838;DHT22;5978;51.020;6.764;2023-01-08T12:34:20;12.80;99.90
11838;DHT22;5978;51.020;6.764;2023-01-08T12:36:52;12.80;99.90
11838;DHT22;5978;51.020;6.764;2023-01-08T12:39:26;12.60;99.90
11838;DHT22;5978;51.020;6.764;2023-01-08T12:41:58;12.60;99.90
11838;DHT22;5978;51.020;6.764;2023-01-08T12:44:29;12.80;99.90
11838;DHT22;5978;51.020;6.764;2023-01-08T12:46:57;13.00;99.90
11838;DHT22;5978;51.020;6.764;2023-01-08T12:49:31;12.90;99.90
11838;DHT22;5978;51.020;6.764;2023-01-08T12:52:19;12.80;99.90
11838;DHT22;5978;51.020;6.764;2023-01-08T12:54:56;12.70;99.90
11838;DHT22;5978;51.020;6.764;2023-01-08T12:57:41;12.60;99.90
11838;DHT22;5978;51.020;6.764;2023-01-08T13:00:29;12.50;99.90
11838;DHT22;5978;51.020;6.764;2023-01-08T13:03:02;12.20;99.90
11838;DHT22;5978;51.020;6.764;2023-01-08T13:05:32;12.20;99.90
11838;DHT22;5978;51.020;6.764;2023-01-08T13:08:04;12.30;99.90
11838;DHT22;5978;51.020;6.764;2023-01-08T13:12:57;12.10;99.90
11838;DHT22;5978;51.020;6.764;2023-01-08T13:15:25;12.00;99.90
11838;DHT22;5978;51.020;6.764;2023-01-08T13:17:54;12.00;99.90
11838;DHT22;5978;51.020;6.764;2023-01-08T13:20:26;11.90;99.90
11838;DHT22;5978;51.020;6.764;2023-01-08T13:22:57;11.90;99.90
11838;DHT22;5978;51.020;6.764;2023-01-08T13:27:49;11.90;99.90
11838;DHT22;5978;51.020;6.764;2023-01-08T13:32:59;12.40;99.90
11838;DHT22;5978;51.020;6.764;2023-01-08T13:35:29;12.60;99.90
11838;DHT22;5978;51.020;6.764;2023-01-08T13:38:13;12.50;99.90
11838;DHT22;5978;51.020;6.764;2023-01-08T13:46:04;12.30;99.90
11838;DHT22;5978;51.020;6.764;2023-01-08T13:48:39;12.90;99.90
11838;DHT22;5978;51.020;6.764;2023-01-08T13:51:05;12.80;99.90
11838;DHT22;5978;51.020;6.764;2023-01-08T13:53:31;12.60;99.90
11838;DHT22;5978;51.020;6.764;2023-01-08T13:56:00;12.90;99.90
11838;DHT22;5978;51.020;6.764;2023-01-08T13:58:43;12.80;99.90
11838;DHT22;5978;51.020;6.764;2023-01-08T14:01:10;12.80;99.90
11838;DHT22;5978;51.020;6.764;2023-01-08T14:03:44;12.70;99.90
11838;DHT22;5978;51.020;6.764;2023-01-08T14:06:24;13.10;99.90
11838;DHT22;5978;51.020;6.764;2023-01-08T14:11:16;14.50;99.90
11838;DHT22;5978;51.020;6.764;2023-01-08T14:13:42;14.40;99.90
11838;DHT22;5978;51.020;6.764;2023-01-08T14:16:11;13.80;99.90
11838;DHT22;5978;51.020;6.764;2023-01-08T14:18:44;13.30;99.90
11838;DHT22;5978;51.020;6.764;2023-01-08T14:21:12;12.70;99.90
11838;DHT22;5978;51.020;6.764;2023-01-08T14:23:48;12.20;99.90
11838;DHT22;5978;51.020;6.764;2023-01-08T14:26:50;12.00;99.90
11838;DHT22;5978;51.020;6.764;2023-01-08T14:29:20;11.70;99.90
11838;DHT22;5978;51.020;6.764;2023-01-08T14:31:51;11.50;99.90
11838;DHT22;5978;51.020;6.764;2023-01-08T14:34:18;11.50;99.90
11838;DHT22;5978;51.020;6.764;2023-01-08T14:36:44;11.40;99.90
11838;DHT22;5978;51.020;6.764;2023-01-08T14:39:11;11.40;99.90
11838;DHT22;5978;51.020;6.764;2023-01-08T14:41:39;11.40;99.90
11838;DHT22;5978;51.020;6.764;2023-01-08T14:44:24;11.30;99.90
11838;DHT22;5978;51.020;6.764;2023-01-08T14:46:52;11.20;99.90
11838;DHT22;5978;51.020;6.764;2023-01-08T14:49:31;11.20;99.90
11838;DHT22;5978;51.020;6.764;2023-01-08T14:52:00;11.20;99.90
11838;DHT22;5978;51.020;6.764;2023-01-08T14:54:32;11.20;99.90
11838;DHT22;5978;51.020;6.764;2023-01-08T14:57:00;11.20;99.90
11838;DHT22;5978;51.020;6.764;2023-01-08T14:59:31;11.30;99.90
11838;DHT22;5978;51.020;6.764;2023-01-08T15:01:59;11.30;99.90
11838;DHT22;5978;51.020;6.764;2023-01-08T15:04:27;11.30;99.90
11838;DHT22;5978;51.020;6.764;2023-01-08T15:07:07;11.20;99.90
11838;DHT22;5978;51.020;6.764;2023-01-08T15:09:38;11.20;99.90
11838;DHT22;5978;51.020;6.764;2023-01-08T15:12:06;11.10;99.90
11838;DHT22;5978;51.020;6.764;2023-01-08T15:14:32;11.10;99.90
11838;DHT22;5978;51.020;6.764;2023-01-08T15:17:21;11.00;99.90
11838;DHT22;5978;51.020;6.764;2023-01-08T15:19:54;11.00;99.90
11838;DHT22;5978;51.020;6.764;2023-01-08T15:22:25;11.00;99.90
11838;DHT22;5978;51.020;6.764;2023-01-08T15:25:05;11.00;99.90
11838;DHT22;5978;51.020;6.764;2023-01-08T15:27:32;10.90;99.90
11838;DHT22;5978;51.020;6.764;2023-01-08T15:30:03;10.90;99.90
11838;DHT22;5978;51.020;6.764;2023-01-08T15:32:32;10.80;99.90
11838;DHT22;5978;51.020;6.764;2023-01-08T15:35:00;10.80;99.90
11838;DHT22;5978;51.020;6.764;2023-01-08T15:37:26;10.80;99.90
11838;DHT22;5978;51.020;6.764;2023-01-08T15:39:52;10.80;99.90
11838;DHT22;5978;51.020;6.764;2023-01-08T15:42:29;10.80;99.90
11838;DHT22;5978;51.020;6.764;2023-01-08T15:45:16;10.80;99.90
11838;DHT22;5978;51.020;6.764;2023-01-08T15:47:42;10.70;99.90
11838;DHT22;5978;51.020;6.764;2023-01-08T15:50:09;10.60;99.90
11838;DHT22;5978;51.020;6.764;2023-01-08T15:52:38;10.50;99.90
11838;DHT22;5978;51.020;6.764;2023-01-08T15:55:05;10.40;99.90
11838;DHT22;5978;51.020;6.764;2023-01-08T15:57:31;10.40;99.90
11838;DHT22;5978;51.020;6.764;2023-01-08T15:59:57;10.30;99.90
11838;DHT22;5978;51.020;6.764;2023-01-08T16:02:23;10.30;99.90
11838;DHT22;5978;51.020;6.764;2023-01-08T16:04:53;10.10;99.90
11838;DHT22;5978;51.020;6.764;2023-01-08T16:07:19;10.00;99.90
11838;DHT22;5978;51.020;6.764;2023-01-08T16:09:44;9.90;99.90
11838;DHT22;5978;51.020;6.764;2023-01-08T16:12:10;9.90;99.90
11838;DHT22;5978;51.020;6.764;2023-01-08T16:14:36;9.80;99.90
11838;DHT22;5978;51.020;6.764;2023-01-08T16:17:05;9.70;99.90
11838;DHT22;5978;51.020;6.764;2023-01-08T16:19:31;9.60;99.90
11838;DHT22;5978;51.020;6.764;2023-01-08T16:21:57;9.50;99.90
11838;DHT22;5978;51.020;6.764;2023-01-08T16:24:24;9.40;99.90
11838;DHT22;5978;51.020;6.764;2023-01-08T16:26:49;9.40;99.90
11838;DHT22;5978;51.020;6.764;2023-01-08T16:29:15;9.30;99.90
11838;DHT22;5978;51.020;6.764;2023-01-08T16:31:45;9.30;99.90
11838;DHT22;5978;51.020;6.764;2023-01-08T16:34:11;9.20;99.90
11838;DHT22;5978;51.020;6.764;2023-01-08T16:36:37;9.20;99.90
11838;DHT22;5978;51.020;6.764;2023-01-08T16:39:04;9.10;99.90
11838;DHT22;5978;51.020;6.764;2023-01-08T16:41:29;9.10;99.90
11838;DHT22;5978;51.020;6.764;2023-01-08T16:43:55;9.10;99.90
11838;DHT22;5978;51.020;6.764;2023-01-08T16:46:21;9.10;99.90
11838;DHT22;5978;51.020;6.764;2023-01-08T16:48:47;9.00;99.90
11838;DHT22;5978;51.020;6.764;2023-01-08T16:51:13;9.00;99.90
11838;DHT22;5978;51.020;6.764;2023-01-08T16:53:40;9.00;99.90
11838;DHT22;5978;51.020;6.764;2023-01-08T16:56:06;8.90;99.90
11838;DHT22;5978;51.020;6.764;2023-01-08T16:58:32;8.90;99.90
11838;DHT22;5978;51.020;6.764;2023-01-08T17:00:59;8.80;99.90
11838;DHT22;5978;51.020;6.764;2023-01-08T17:03:25;8.80;99.90